logo
Search for airport 
image banner adimage banner adimage banner ad
image banner ad

LKMT - Ostrava/Mosnov

Located in Ostrava, Czech Republic

ICAO - LKMT, IATA - OSR

Data provided by Airmate  

General information

Coordinates: N49°41'46" E18°6'39"
Elevation is 844 feet MSL.
 
View others Airports in Moravian-Silesian Region

Operational data

Special qualification required
Current time UTC:
Current local time:
Weather
METAR: LKMT 200730Z 22012KT 9999 -RA SCT010 BKN014 OVC029 05/03 Q1007 NOSIG
TAF: TAF LKMT 200500Z 2006/2106 20007KT 9999 OVC017 TEMPO 2006/2018 22011KT 7000 RA OVC009 PROB30 TEMPO 2010/2016 3000 SHRA BKN008CB BECMG 2018/2020 36015G25KT
View NOTAMs / SUP AIP / TFR affecting this airport [VIEW]
Communications frequencies: [VIEW]

Runways:

RWY identifierQFULength (ft)Width (ft)SurfaceLDA (ft)
0446°11519207CONC
22226°11519207CONC

Airport contact information

Address: Ostrava Czech Republic

Handlers

Euro Jet

Euro Jet
[VIEW][VIEW]
+420736470704

Ostrava Airport Handling

Ostrava Airport Handling

Other aviation service providers

Flight schools

Elmontex, A.S.

Elmontex, A.S.

Fly Service Care A.S.

Fly Service Care A.S.

Let's Fly, S.R.O

Let's Fly, S.R.O
letsfly@letsfly.cz+420597471474

Všb - Tu Ostrava - Fakulta Strojní

Všb - Tu Ostrava - Fakulta Strojní

Satellite view of LKMT